createdAt,value
2019-01-04T00:01:21.957Z,103137.88
2019-01-04T00:03:50.257Z,103125.77
2019-01-04T00:06:18.569Z,103127.44
2019-01-04T00:08:46.936Z,103127.84
2019-01-04T00:11:15.227Z,103129.67
2019-01-04T00:13:43.536Z,103127.66
2019-01-04T00:16:12.074Z,103130.78
2019-01-04T00:18:40.372Z,103134.71
2019-01-04T00:21:08.703Z,103134.71
2019-01-04T00:23:36.945Z,103131.20
2019-01-04T00:26:05.265Z,103131.13
2019-01-04T00:28:33.556Z,103135.80
2019-01-04T00:31:01.856Z,103126.67
2019-01-04T00:33:30.155Z,103121.84
2019-01-04T00:35:58.468Z,103120.48
2019-01-04T00:38:26.752Z,103112.30
2019-01-04T00:40:55.037Z,103119.72
2019-01-04T00:43:23.597Z,103125.45
2019-01-04T00:45:52.144Z,103126.91
2019-01-04T00:48:20.721Z,103124.75
2019-01-04T00:50:49.256Z,103125.13
2019-01-04T00:53:17.553Z,103121.63
2019-01-04T00:55:54.760Z,103132.48
2019-01-04T00:58:53.110Z,103120.80
2019-01-04T01:01:39.184Z,103114.74
2019-01-04T01:04:26.956Z,103108.22
2019-01-04T01:07:29.694Z,103117.80
2019-01-04T01:10:03.998Z,103116.62
2019-01-04T01:12:55.021Z,103115.33
2019-01-04T01:15:32.181Z,103114.42
2019-01-04T01:18:14.875Z,103118.80
2019-01-04T01:21:13.268Z,103114.58
2019-01-04T01:24:13.236Z,103120.30
2019-01-04T01:26:56.410Z,103126.89
2019-01-04T01:29:42.771Z,103127.41
2019-01-04T01:32:33.397Z,103131.44
2019-01-04T01:35:36.022Z,103142.37
2019-01-04T01:38:34.367Z,103146.29
2019-01-04T01:41:17.602Z,103135.48
2019-01-04T01:44:17.447Z,103136.73
2019-01-04T01:46:49.154Z,103140.56
2019-01-04T01:49:36.847Z,103141.45
2019-01-04T01:52:14.313Z,103139.34
2019-01-04T01:54:42.895Z,103149.73
2019-01-04T01:57:11.456Z,103142.91
2019-01-04T01:59:39.762Z,103144.28
2019-01-04T02:02:08.077Z,103147.01
2019-01-04T02:04:36.636Z,103139.67
2019-01-04T02:07:04.939Z,103141.42
2019-01-04T02:09:33.233Z,103130.63
2019-01-04T02:12:01.788Z,103126.80
2019-01-04T02:14:30.093Z,103119.39
2019-01-04T02:16:58.714Z,103119.30
2019-01-04T02:19:27.025Z,103119.25
2019-01-04T02:21:55.308Z,103127.03
2019-01-04T02:24:23.615Z,103121.05
2019-01-04T02:26:51.915Z,103124.50
2019-01-04T02:29:20.224Z,103123.16
2019-01-04T02:31:48.525Z,103119.13
2019-01-04T02:34:16.808Z,103135.41
2019-01-04T02:36:45.378Z,103141.72
2019-01-04T02:39:13.669Z,103136.42
2019-01-04T02:41:41.989Z,103123.73
2019-01-04T02:44:10.269Z,103126.27
2019-01-04T02:46:38.811Z,103133.09
2019-01-04T02:49:07.126Z,103126.53
2019-01-04T02:51:35.420Z,103135.23
2019-01-04T02:54:03.742Z,103137.39
2019-01-04T02:56:32.038Z,103134.41
2019-01-04T02:59:00.366Z,103120.21
2019-01-04T03:01:28.656Z,103125.81
2019-01-04T03:03:56.945Z,103127.06
2019-01-04T03:06:25.510Z,103128.41
2019-01-04T03:08:53.818Z,103124.53
2019-01-04T03:11:22.133Z,103124.53
2019-01-04T03:13:50.427Z,103126.08
2019-01-04T03:16:18.885Z,103132.88
2019-01-04T03:18:47.175Z,103126.70
2019-01-04T03:21:15.477Z,103125.37
2019-01-04T03:23:43.794Z,103129.28
2019-01-04T03:26:12.092Z,103132.80
2019-01-04T03:28:40.662Z,103119.92
2019-01-04T03:31:08.956Z,103115.17
2019-01-04T03:33:37.355Z,103111.27
2019-01-04T03:36:05.907Z,103114.27
2019-01-04T03:38:34.206Z,103108.67
2019-01-04T03:41:02.786Z,103102.16
2019-01-04T03:43:31.085Z,103105.11
2019-01-04T03:45:59.410Z,103107.23
2019-01-04T03:48:27.708Z,103099.34
2019-01-04T03:50:56.259Z,103091.48
2019-01-04T03:53:24.559Z,103093.98
2019-01-04T03:55:52.882Z,103089.94
2019-01-04T03:58:21.189Z,103080.77
2019-01-04T04:00:49.728Z,103078.55
2019-01-04T04:03:18.045Z,103081.58
2019-01-04T04:05:46.342Z,103082.00
2019-01-04T04:08:14.640Z,103078.97
2019-01-04T04:10:42.942Z,103081.52
2019-01-04T04:13:11.271Z,103086.58
2019-01-04T04:15:39.570Z,103087.78
2019-01-04T04:18:07.865Z,103094.59
2019-01-04T04:20:36.181Z,103096.30
2019-01-04T04:23:04.471Z,103094.09
2019-01-04T04:25:32.790Z,103089.78
2019-01-04T04:28:01.078Z,103084.55
2019-01-04T04:30:29.385Z,103072.38
2019-01-04T04:32:57.689Z,103070.56
2019-01-04T04:35:26.012Z,103069.18
2019-01-04T04:37:54.317Z,103070.48
2019-01-04T04:40:22.605Z,103078.75
2019-01-04T04:42:53.336Z,103083.05
2019-01-04T04:45:21.230Z,103075.60
2019-01-04T04:47:49.493Z,103078.58
2019-01-04T04:50:17.803Z,103065.50
2019-01-04T04:52:46.122Z,103059.72
2019-01-04T04:55:14.425Z,103053.14
2019-01-04T04:57:42.803Z,103049.58
2019-01-04T05:00:11.122Z,103053.42
2019-01-04T05:02:39.422Z,103055.55
2019-01-04T05:05:07.740Z,103057.63
2019-01-04T05:07:36.046Z,103071.94
2019-01-04T05:10:04.904Z,103076.69
2019-01-04T05:12:33.201Z,103079.32
2019-01-04T05:15:01.498Z,103075.02
2019-01-04T05:17:29.830Z,103079.75
2019-01-04T05:19:58.134Z,103077.14
2019-01-04T05:22:26.451Z,103077.53
2019-01-04T05:24:54.741Z,103065.75
2019-01-04T05:27:23.034Z,103066.64
2019-01-04T05:29:51.348Z,103065.66
2019-01-04T05:32:19.637Z,103066.09
2019-01-04T05:34:47.940Z,103063.03
2019-01-04T05:37:16.232Z,103061.73
2019-01-04T05:39:44.550Z,103067.30
2019-01-04T05:42:12.860Z,103060.24
2019-01-04T05:44:41.151Z,103051.06
2019-01-04T05:47:09.457Z,103037.13
2019-01-04T05:49:37.762Z,103027.06
2019-01-04T05:52:06.081Z,103029.12
2019-01-04T05:54:34.376Z,103034.75
2019-01-04T05:57:02.685Z,103038.54
2019-01-04T05:59:30.973Z,103032.81
2019-01-04T06:01:59.275Z,103026.69
2019-01-04T06:04:27.590Z,103026.69
2019-01-04T06:06:55.883Z,103027.53
2019-01-04T06:09:24.197Z,103020.56
2019-01-04T06:11:52.507Z,103019.65
2019-01-04T06:14:21.058Z,103020.08
2019-01-04T06:16:49.345Z,103019.62
2019-01-04T06:19:17.902Z,103029.88
2019-01-04T06:21:46.193Z,103030.24
2019-01-04T06:24:14.487Z,103028.39
2019-01-04T06:26:42.804Z,103021.88
2019-01-04T06:29:11.084Z,103015.42
2019-01-04T06:31:39.394Z,103014.05
2019-01-04T06:34:07.712Z,103015.36
2019-01-04T06:36:36.021Z,103022.33
2019-01-04T06:39:06.796Z,103028.45
2019-01-04T06:41:35.112Z,103031.94
2019-01-04T06:44:03.415Z,103020.21
2019-01-04T06:46:31.707Z,103025.39
2019-01-04T06:49:00.015Z,103030.08
2019-01-04T06:51:28.319Z,103030.89
2019-01-04T06:53:56.645Z,103029.53
2019-01-04T06:56:24.950Z,103025.63
2019-01-04T06:58:53.514Z,103032.11
2019-01-04T07:01:21.814Z,103035.07
2019-01-04T07:03:50.127Z,103034.09
2019-01-04T07:06:18.678Z,103028.75
2019-01-04T07:08:46.970Z,103026.07
2019-01-04T07:11:15.292Z,103020.41
2019-01-04T07:13:43.581Z,103019.20
2019-01-04T07:16:11.894Z,103026.23
2019-01-04T07:18:40.191Z,103035.72
2019-01-04T07:21:08.508Z,103042.08
2019-01-04T07:23:36.810Z,103044.97
2019-01-04T07:26:05.125Z,103041.36
2019-01-04T07:28:33.690Z,103043.12
2019-01-04T07:31:01.978Z,103033.05
2019-01-04T07:33:30.285Z,103035.19
2019-01-04T07:35:58.840Z,103034.28
2019-01-04T07:38:27.392Z,103030.92
2019-01-04T07:40:55.696Z,103034.52
2019-01-04T07:43:24.003Z,103036.80
2019-01-04T07:45:52.307Z,103037.77
2019-01-04T07:48:20.606Z,103045.05
2019-01-04T07:50:48.917Z,103044.58
2019-01-04T07:53:17.204Z,103042.02
2019-01-04T07:55:45.528Z,103038.42
2019-01-04T07:58:13.830Z,103036.11
2019-01-04T08:00:42.117Z,103043.77
2019-01-04T08:03:10.515Z,103037.53
2019-01-04T08:05:38.814Z,103039.65
2019-01-04T08:08:07.138Z,103047.73
2019-01-04T08:10:35.429Z,103039.38
2019-01-04T08:13:03.725Z,103044.84
2019-01-04T08:15:32.042Z,103036.56
2019-01-04T08:18:00.328Z,103023.06
2019-01-04T08:20:28.649Z,103040.37
2019-01-04T08:22:56.942Z,103034.31
2019-01-04T08:25:25.244Z,103036.53
2019-01-04T08:27:53.563Z,103031.13
2019-01-04T08:30:21.941Z,103028.35
2019-01-04T08:32:50.253Z,103027.89
2019-01-04T08:35:18.541Z,103022.08
2019-01-04T08:37:46.838Z,103020.48
2019-01-04T08:40:15.142Z,103023.27
2019-01-04T08:42:43.446Z,103021.02
2019-01-04T08:45:11.762Z,103015.29
2019-01-04T08:47:40.061Z,103019.87
2019-01-04T08:50:09.041Z,103017.61
2019-01-04T08:52:37.329Z,103018.08
2019-01-04T08:55:08.157Z,103008.59
2019-01-04T08:57:36.741Z,103016.85
2019-01-04T09:00:11.025Z,103013.92
2019-01-04T09:02:39.333Z,103018.97
2019-01-04T09:05:07.629Z,103015.22
2019-01-04T09:07:35.913Z,103015.92
2019-01-04T09:10:05.965Z,103007.34
2019-01-04T09:12:34.254Z,103008.07
2019-01-04T09:15:02.807Z,103008.45
2019-01-04T09:17:31.111Z,103004.84
2019-01-04T09:19:59.417Z,103002.74
2019-01-04T09:22:27.718Z,102992.61
2019-01-04T09:24:56.018Z,102989.65
2019-01-04T09:27:24.587Z,102985.69
2019-01-04T09:29:52.873Z,102986.91
2019-01-04T09:32:21.187Z,102986.72
2019-01-04T09:34:49.726Z,102977.69
2019-01-04T09:37:18.070Z,102978.76
2019-01-04T09:39:46.372Z,102974.76
2019-01-04T09:42:14.756Z,102975.80
2019-01-04T09:44:43.317Z,102971.38
2019-01-04T09:47:11.641Z,102958.23
2019-01-04T09:49:39.936Z,102962.50
2019-01-04T09:52:08.260Z,102964.16
2019-01-04T09:54:36.548Z,102974.05
2019-01-04T09:57:04.864Z,102963.39
2019-01-04T09:59:33.418Z,102959.20
2019-01-04T10:02:01.744Z,102959.06
2019-01-04T10:04:30.268Z,102952.32
2019-01-04T10:06:58.554Z,102952.91
2019-01-04T10:09:27.113Z,102948.62
2019-01-04T10:11:55.412Z,102932.27
2019-01-04T10:14:23.736Z,102934.14
2019-01-04T10:16:52.024Z,102933.81
2019-01-04T10:19:22.973Z,102923.55
2019-01-04T10:21:51.272Z,102917.73
2019-01-04T10:24:19.567Z,102920.73
2019-01-04T10:26:47.888Z,102926.86
2019-01-04T10:29:16.190Z,102922.64
2019-01-04T10:31:44.468Z,102917.03
2019-01-04T10:34:12.769Z,102908.73
2019-01-04T10:36:41.052Z,102902.19
2019-01-04T10:39:09.347Z,102902.14
2019-01-04T10:41:37.650Z,102908.09
2019-01-04T10:44:05.964Z,102902.31
2019-01-04T10:46:34.256Z,102903.70
2019-01-04T10:49:02.551Z,102895.91
2019-01-04T10:51:30.848Z,102892.78
2019-01-04T10:53:59.136Z,102890.25
2019-01-04T10:56:27.452Z,102881.27
2019-01-04T10:58:56.007Z,102879.25
2019-01-04T11:01:24.310Z,102885.15
2019-01-04T11:03:52.600Z,102884.43
2019-01-04T11:06:20.879Z,102877.81
2019-01-04T11:08:49.267Z,102873.17
2019-01-04T11:11:17.550Z,102866.51
2019-01-04T11:13:45.856Z,102859.89
2019-01-04T11:16:14.155Z,102862.64
2019-01-04T11:18:42.732Z,102863.90
2019-01-04T11:21:11.272Z,102857.11
2019-01-04T11:23:57.476Z,102864.03
2019-01-04T11:26:28.964Z,102860.11
2019-01-04T11:29:03.060Z,102853.48
2019-01-04T11:31:40.346Z,102851.00
2019-01-04T11:34:32.936Z,102852.77
2019-01-04T11:37:22.643Z,102845.34
2019-01-04T11:40:22.509Z,102846.11
2019-01-04T11:43:28.322Z,102841.72
2019-01-04T11:46:08.435Z,102833.42
2019-01-04T11:48:45.516Z,102826.13
2019-01-04T11:51:19.647Z,102827.89
2019-01-04T11:53:47.945Z,102819.34
2019-01-04T11:56:16.238Z,102813.52
2019-01-04T11:58:44.539Z,102812.92
2019-01-04T12:01:12.823Z,102814.88
2019-01-04T12:03:41.140Z,102820.05
2019-01-04T12:06:09.420Z,102819.25
2019-01-04T12:08:37.719Z,102826.25
2019-01-04T12:11:05.998Z,102828.99
2019-01-04T12:13:34.285Z,102825.41
2019-01-04T12:16:02.584Z,102826.17
2019-01-04T12:18:30.876Z,102830.89
2019-01-04T12:20:59.198Z,102819.80
2019-01-04T12:23:27.526Z,102814.11
2019-01-04T12:25:55.873Z,102806.57
2019-01-04T12:28:24.174Z,102800.63
2019-01-04T12:30:52.721Z,102799.32
2019-01-04T12:33:21.027Z,102796.20
2019-01-04T12:35:49.321Z,102787.89
2019-01-04T12:38:17.898Z,102780.14
2019-01-04T12:40:46.200Z,102783.13
2019-01-04T12:43:14.507Z,102773.73
2019-01-04T12:45:42.808Z,102774.19
2019-01-04T12:48:11.103Z,102769.86
2019-01-04T12:50:39.417Z,102772.02
2019-01-04T12:53:07.967Z,102761.77
2019-01-04T12:55:36.292Z,102767.37
2019-01-04T12:58:04.598Z,102769.34
2019-01-04T13:00:33.160Z,102770.27
2019-01-04T13:03:01.466Z,102768.05
2019-01-04T13:05:29.770Z,102761.13
2019-01-04T13:07:58.066Z,102760.12
2019-01-04T13:10:26.618Z,102752.81
2019-01-04T13:12:55.180Z,102733.08
2019-01-04T13:15:23.481Z,102737.00
2019-01-04T13:17:51.783Z,102745.09
2019-01-04T13:20:20.324Z,102732.13
2019-01-04T13:22:48.626Z,102734.14
2019-01-04T13:25:16.932Z,102731.86
2019-01-04T13:27:45.493Z,102726.06
2019-01-04T13:30:13.798Z,102735.13
2019-01-04T13:32:42.110Z,102726.80
2019-01-04T13:35:10.417Z,102719.80
2019-01-04T13:37:38.965Z,102732.64
2019-01-04T13:40:07.340Z,102726.11
2019-01-04T13:42:35.648Z,102722.90
2019-01-04T13:45:04.478Z,102729.84
2019-01-04T13:47:33.030Z,102729.00
2019-01-04T13:50:01.326Z,102731.77
2019-01-04T13:52:29.628Z,102731.11
2019-01-04T13:54:57.917Z,102719.61
2019-01-04T13:57:26.494Z,102720.42
2019-01-04T13:59:54.780Z,102716.89
2019-01-04T14:02:23.334Z,102712.20
2019-01-04T14:04:51.632Z,102710.02
2019-01-04T14:07:19.938Z,102702.27
2019-01-04T14:09:48.492Z,102697.13
2019-01-04T14:12:16.782Z,102684.95
2019-01-04T14:14:45.084Z,102679.61
2019-01-04T14:17:13.629Z,102679.69
2019-01-04T14:19:41.933Z,102667.94
2019-01-04T14:22:10.511Z,102667.01
2019-01-04T14:24:38.815Z,102670.84
2019-01-04T14:27:07.122Z,102660.94
2019-01-04T14:29:35.425Z,102658.66
2019-01-04T14:32:03.986Z,102658.71
2019-01-04T14:34:32.299Z,102666.68
2019-01-04T14:37:00.602Z,102675.57
2019-01-04T14:39:29.177Z,102691.11
2019-01-04T14:41:57.478Z,102691.58
2019-01-04T14:44:25.810Z,102684.08
2019-01-04T14:46:54.097Z,102682.48
2019-01-04T14:49:22.382Z,102694.23
2019-01-04T14:51:50.688Z,102707.30
2019-01-04T14:54:19.234Z,102715.14
2019-01-04T14:56:47.709Z,102715.55
2019-01-04T14:59:15.997Z,102709.73
2019-01-04T15:01:45.117Z,102717.03
2019-01-04T15:04:13.677Z,102710.20
2019-01-04T15:06:41.978Z,102708.30
2019-01-04T15:09:10.294Z,102712.22
2019-01-04T15:11:38.599Z,102696.98
2019-01-04T15:14:06.919Z,102704.98
2019-01-04T15:16:35.222Z,102703.26
2019-01-04T15:19:03.534Z,102694.20
2019-01-04T15:21:31.852Z,102685.90
2019-01-04T15:24:00.149Z,102679.04
2019-01-04T15:26:28.470Z,102668.85
2019-01-04T15:28:56.759Z,102669.73
2019-01-04T15:31:25.060Z,102673.10
2019-01-04T15:33:53.379Z,102671.20
2019-01-04T15:36:21.665Z,102675.96
2019-01-04T15:38:49.968Z,102682.91
2019-01-04T15:41:18.268Z,102691.17
2019-01-04T15:43:46.573Z,102690.61
2019-01-04T15:46:14.866Z,102681.64
2019-01-04T15:48:43.157Z,102686.48
2019-01-04T15:51:11.474Z,102678.20
2019-01-04T15:53:39.760Z,102672.59
2019-01-04T15:56:08.083Z,102667.75
2019-01-04T15:58:36.370Z,102671.75
2019-01-04T16:01:04.684Z,102679.04
2019-01-04T16:03:33.012Z,102672.46
2019-01-04T16:06:01.571Z,102673.94
2019-01-04T16:08:29.892Z,102682.48
2019-01-04T16:10:58.184Z,102686.02
2019-01-04T16:13:26.494Z,102682.19
2019-01-04T16:15:54.800Z,102676.55
2019-01-04T16:18:23.090Z,102675.24
2019-01-04T16:20:51.397Z,102666.52
2019-01-04T16:23:19.949Z,102662.73
2019-01-04T16:25:48.350Z,102661.72
2019-01-04T16:28:16.630Z,102665.45
2019-01-04T16:30:45.002Z,102659.64
2019-01-04T16:33:13.306Z,102661.45
2019-01-04T16:35:41.857Z,102651.85
2019-01-04T16:38:10.174Z,102644.56
2019-01-04T16:40:38.472Z,102641.10
2019-01-04T16:43:06.776Z,102635.47
2019-01-04T16:45:35.100Z,102635.75
2019-01-04T16:48:03.403Z,102624.70
2019-01-04T16:50:31.988Z,102619.72
2019-01-04T16:53:00.293Z,102608.34
2019-01-04T16:55:28.851Z,102603.91
2019-01-04T16:57:57.175Z,102603.91
2019-01-04T17:00:25.457Z,102610.44
2019-01-04T17:02:53.789Z,102617.44
2019-01-04T17:05:22.086Z,102610.91
2019-01-04T17:07:50.389Z,102599.58
2019-01-04T17:10:18.929Z,102598.27
2019-01-04T17:12:47.250Z,102598.22
2019-01-04T17:15:15.783Z,102597.42
2019-01-04T17:17:44.069Z,102595.41
2019-01-04T17:20:12.376Z,102596.23
2019-01-04T17:22:40.685Z,102600.02
2019-01-04T17:25:09.176Z,102599.11
2019-01-04T17:27:37.708Z,102594.22
2019-01-04T17:30:08.452Z,102590.77
2019-01-04T17:32:37.082Z,102600.29
2019-01-04T17:35:06.050Z,102595.11
2019-01-04T17:37:34.359Z,102596.50
2019-01-04T17:40:02.909Z,102594.48
2019-01-04T17:42:31.448Z,102596.59
2019-01-04T17:44:59.757Z,102606.73
2019-01-04T17:47:28.048Z,102601.23
2019-01-04T17:49:56.363Z,102597.32
2019-01-04T17:52:24.909Z,102600.78
2019-01-04T17:54:53.209Z,102592.05
2019-01-04T17:57:21.521Z,102590.98
2019-01-04T17:59:49.813Z,102589.13
2019-01-04T18:02:18.123Z,102583.90
2019-01-04T18:04:46.426Z,102593.64
2019-01-04T18:07:14.984Z,102603.80
2019-01-04T18:09:43.273Z,102602.92
2019-01-04T18:12:11.577Z,102593.87
2019-01-04T18:14:39.892Z,102592.45
2019-01-04T18:17:08.180Z,102597.41
2019-01-04T18:19:36.500Z,102598.81
2019-01-04T18:22:04.814Z,102608.42
2019-01-04T18:24:33.114Z,102607.03
2019-01-04T18:27:01.444Z,102612.73
2019-01-04T18:29:29.993Z,102620.56
2019-01-04T18:31:58.318Z,102617.02
2019-01-04T18:34:26.617Z,102622.71
2019-01-04T18:36:54.938Z,102618.28
2019-01-04T18:39:23.472Z,102615.58
2019-01-04T18:41:51.776Z,102610.36
2019-01-04T18:44:20.088Z,102615.06
2019-01-04T18:46:48.378Z,102607.93
2019-01-04T18:49:16.681Z,102602.48
2019-01-04T18:51:45.244Z,102611.58
2019-01-04T18:54:13.800Z,102605.56
2019-01-04T18:56:42.351Z,102608.31
2019-01-04T18:59:10.669Z,102607.93
2019-01-04T19:01:38.986Z,102604.34
2019-01-04T19:04:07.290Z,102606.95
2019-01-04T19:06:37.004Z,102608.39
2019-01-04T19:09:06.641Z,102606.67
2019-01-04T19:11:35.192Z,102597.02
2019-01-04T19:14:03.514Z,102603.88
2019-01-04T19:16:31.806Z,102593.02
2019-01-04T19:19:00.112Z,102605.19
2019-01-04T19:21:28.419Z,102596.09
2019-01-04T19:23:57.888Z,102594.62
2019-01-04T19:26:26.165Z,102594.22
2019-01-04T19:28:54.455Z,102597.62
2019-01-04T19:31:22.772Z,102594.08
2019-01-04T19:33:51.075Z,102594.92
2019-01-04T19:36:19.384Z,102598.84
2019-01-04T19:38:47.939Z,102595.84
2019-01-04T19:41:16.225Z,102595.63
2019-01-04T19:43:44.542Z,102600.33
2019-01-04T19:46:12.849Z,102597.06
2019-01-04T19:48:41.153Z,102596.66
2019-01-04T19:51:09.448Z,102596.98
2019-01-04T19:53:37.782Z,102596.98
2019-01-04T19:56:06.083Z,102600.91
2019-01-04T19:58:34.651Z,102593.84
2019-01-04T20:01:02.943Z,102593.84
2019-01-04T20:03:31.489Z,102596.14
2019-01-04T20:06:07.733Z,102594.27
2019-01-04T20:09:14.922Z,102595.57
2019-01-04T20:12:27.169Z,102599.22
2019-01-04T20:15:15.288Z,102592.98
2019-01-04T20:17:45.216Z,102588.90
2019-01-04T20:20:27.183Z,102592.22
2019-01-04T20:22:57.116Z,102587.70
2019-01-04T20:25:43.707Z,102582.14
2019-01-04T20:28:19.646Z,102584.75
2019-01-04T20:31:04.483Z,102583.67
2019-01-04T20:33:46.026Z,102584.19
2019-01-04T20:36:31.880Z,102588.35
2019-01-04T20:39:07.735Z,102593.06
2019-01-04T20:41:43.065Z,102594.97
2019-01-04T20:44:13.011Z,102583.44
2019-01-04T20:46:49.015Z,102587.88
2019-01-04T20:49:34.979Z,102589.78
2019-01-04T20:52:23.059Z,102591.92
2019-01-04T20:55:08.105Z,102588.58
2019-01-04T20:57:40.859Z,102582.97
2019-01-04T21:00:28.777Z,102576.30
2019-01-04T21:03:10.762Z,102576.35
2019-01-04T21:05:43.432Z,102572.80
2019-01-04T21:08:13.755Z,102566.63
2019-01-04T21:10:43.632Z,102565.97
2019-01-04T21:13:16.502Z,102574.41
2019-01-04T21:15:55.466Z,102566.11
2019-01-04T21:18:31.409Z,102569.19
2019-01-04T21:21:07.286Z,102558.59
2019-01-04T21:23:42.932Z,102559.91
2019-01-04T21:26:29.069Z,102549.45
2019-01-04T21:29:14.109Z,102549.13
2019-01-04T21:31:46.874Z,102544.38
2019-01-04T21:34:22.322Z,102547.77
2019-01-04T21:36:57.686Z,102541.70
2019-01-04T21:39:33.317Z,102541.24
2019-01-04T21:42:15.038Z,102538.92
2019-01-04T21:45:03.077Z,102535.00
2019-01-04T21:47:41.806Z,102532.20
2019-01-04T21:50:27.739Z,102537.79
2019-01-04T21:53:06.328Z,102529.08
2019-01-04T21:55:48.110Z,102533.27
2019-01-04T21:58:33.764Z,102536.26
2019-01-04T22:01:12.863Z,102522.81
2019-01-04T22:03:51.825Z,102519.98
2019-01-04T22:06:24.734Z,102517.88
2019-01-04T22:08:54.690Z,102516.06
2019-01-04T22:11:27.630Z,102515.37
2019-01-04T22:14:12.404Z,102513.91
2019-01-04T22:16:44.761Z,102508.08
2019-01-04T22:19:20.166Z,102495.39
2019-01-04T22:21:56.046Z,102501.88
2019-01-04T22:24:37.667Z,102502.95
2019-01-04T22:27:23.793Z,102505.48
2019-01-04T22:29:53.991Z,102499.73
2019-01-04T22:32:40.125Z,102503.04
2019-01-04T22:35:10.070Z,102498.66
2019-01-04T22:37:42.833Z,102505.09
2019-01-04T22:40:28.090Z,102499.17
2019-01-04T22:43:06.715Z,102498.33
2019-01-04T22:45:39.362Z,102493.16
2019-01-04T22:48:14.780Z,102496.56
2019-01-04T22:51:00.632Z,102493.28
2019-01-04T22:53:30.578Z,102490.67
2019-01-04T22:56:18.077Z,102495.23
2019-01-04T22:59:02.832Z,102492.01
2019-01-04T23:01:48.537Z,102482.25
2019-01-04T23:04:33.304Z,102482.02
2019-01-04T23:07:05.954Z,102484.60
2019-01-04T23:09:51.801Z,102476.44
2019-01-04T23:12:27.192Z,102482.13
2019-01-04T23:15:19.936Z,102488.34
2019-01-04T23:17:49.173Z,102481.58
2019-01-04T23:20:21.880Z,102479.34
2019-01-04T23:22:52.080Z,102480.59
2019-01-04T23:25:34.038Z,102470.61
2019-01-04T23:28:15.700Z,102475.69
2019-01-04T23:31:00.974Z,102461.55
2019-01-04T23:33:39.597Z,102458.94
2019-01-04T23:36:25.446Z,102449.70
2019-01-04T23:39:11.296Z,102447.70
2019-01-04T23:41:47.329Z,102448.40
2019-01-04T23:44:17.265Z,102449.77
2019-01-04T23:46:47.209Z,102447.00
2019-01-04T23:49:19.953Z,102446.25
2019-01-04T23:51:52.338Z,102439.72
2019-01-04T23:54:27.797Z,102444.02
2019-01-04T23:56:57.747Z,102428.66
2019-01-04T23:59:44.149Z,102426.94
